KNGU/NGU METAR and TAF weather

Enter ICAO airport designator
Station Type Date Time Source
KNGU METAR 2020/04/05 21:59 UTC NOAA

KNGU 052159Z 13010KT 10SM FEW060 FEW260 18/07 A3006 RMK AO2 SLP179 T01780067


Station Type Date Time Source
KNGU Decoded METAR 2020/04/05 21:59 UTC NOAA

Norfolk, Naval Air Station, VA, United States (KNGU) 36-56-01N 076-17-45W 8M
Apr 05, 2020 - 05:59 PM EDT / 2020.04.05 2159 UTC
Wind: from the SE (130 degrees) at 12 MPH (10 KT):0
Visibility: 10 mile(s):0
Sky conditions: mostly clear
Temperature: 64.0 F (17.8 C)
Dew Point: 44.1 F (6.7 C)
Relative Humidity: 48%
Pressure (altimeter): 30.06 in. Hg (1017 hPa)
ob: KNGU 052159Z 13010KT 10SM FEW060 FEW260 18/07 A3006 RMK AO2 SLP179 T01780067
cycle: 22

Station Type Date Time Source
KNGU TAF 2020/04/05 15:24 UTC NOAA

TAF KNGU 0515/0615 VRB04KT 9999 FEW250 QNH3006INS
FM052200 16008KT 9999 SCT020 BKN080 BKN250 QNH3005INS
BECMG 0601/0603 20010G20KT 9999 SCT100 BKN250 QNH3002INS
FM061100 22012KT 9999 VCSH SCT020 SCT100 BKN250 QNH3003INS T15/0520Z T09/0610Z FN00216

Example: see airport list